Time;durP1;ratioP1;P1;durP2;ratioP2;P2;SDS_P1;SDS_P2;PMS_P1;PMS_P2;Temp;Humidity;BMP_temperature;BMP_pressure;BME280_temperature;BME280_humidity;BME280_pressure;Samples;Min_cycle;Max_cycle;Signal;HPM_P1;HPM_P2
2022/12/26 00:02:16;;;;;;;1.00;0.90;;;;;;;12.75;32.60;101179.19;6014586;23;20110;-89
2022/12/26 00:04:41;;;;;;;0.95;0.88;;;;;;;12.62;32.52;101152.16;6014461;23;20011;-89
2022/12/26 00:07:07;;;;;;;1.10;1.00;;;;;;;12.59;32.52;101148.84;6014722;23;20011;-89
2022/12/26 00:09:33;;;;;;;1.25;1.10;;;;;;;12.56;32.45;101143.81;6014652;23;20007;-89
2022/12/26 00:11:59;;;;;;;1.27;0.85;;;;;;;12.54;32.67;101139.69;6015148;23;20098;-89
2022/12/26 00:14:25;;;;;;;1.17;1.08;;;;;;;12.58;32.37;101149.84;6016782;23;20360;-89
2022/12/26 00:16:51;;;;;;;1.52;0.90;;;;;;;12.42;32.72;101104.44;6016421;23;20445;-89
2022/12/26 00:19:18;;;;;;;1.13;0.95;;;;;;;12.73;32.70;101157.91;6016269;23;20031;-89
2022/12/26 00:21:44;;;;;;;1.02;0.80;;;;;;;12.47;32.51;101102.03;6015258;23;20014;-89
2022/12/26 00:24:10;;;;;;;1.33;0.90;;;;;;;12.69;32.75;101148.56;6015691;23;20015;-89
2022/12/26 00:26:36;;;;;;;1.27;0.98;;;;;;;12.67;32.64;101141.72;6017141;23;20015;-89
2022/12/26 00:29:02;;;;;;;1.00;0.90;;;;;;;12.66;32.91;101140.91;6017132;23;20495;-89
2022/12/26 00:31:30;;;;;;;1.65;1.00;;;;;;;12.57;32.47;101128.56;6015809;23;20054;-89
2022/12/26 00:33:56;;;;;;;1.20;0.85;;;;;;;12.51;32.88;101110.53;6016127;23;20025;-89
2022/12/26 00:36:28;;;;;;;1.80;1.13;;;;;;;12.47;32.67;101088.63;6015458;23;20396;-88
2022/12/26 00:38:54;;;;;;;2.45;1.20;;;;;;;12.71;32.65;101127.78;6039062;23;20089;-89
2022/12/26 00:41:20;;;;;;;1.42;0.90;;;;;;;12.65;32.55;101116.94;6038528;23;20082;-88
2022/12/26 00:43:45;;;;;;;1.63;1.10;;;;;;;12.72;32.67;101125.91;6014483;23;20188;-88
2022/12/26 00:46:11;;;;;;;0.95;0.90;;;;;;;12.71;32.96;101137.63;6038752;23;20006;-89
2022/12/26 00:48:37;;;;;;;1.85;1.10;;;;;;;12.68;32.72;101130.00;6039463;23;20493;-88
2022/12/26 00:51:03;;;;;;;1.67;1.20;;;;;;;12.64;32.96;101124.16;6038829;23;20078;-89
2022/12/26 00:53:28;;;;;;;1.52;1.10;;;;;;;12.59;32.61;101122.03;6037991;23;20033;-89
2022/12/26 00:55:54;;;;;;;2.22;1.10;;;;;;;12.77;32.53;101151.16;6014945;23;20013;-89
2022/12/26 00:58:20;;;;;;;1.45;1.02;;;;;;;12.70;32.62;101146.72;6015333;23;20399;-89
2022/12/26 01:00:46;;;;;;;1.88;1.30;;;;;;;12.67;32.76;101142.53;6015095;23;20434;-88
2022/12/26 01:03:14;;;;;;;1.85;1.20;;;;;;;12.77;32.75;101167.25;6014826;23;20027;-89
2022/12/26 01:05:44;;;;;;;2.72;1.23;;;;;;;12.61;32.94;101147.78;6014762;23;20078;-89
2022/12/26 01:08:10;;;;;;;3.00;1.30;;;;;;;12.46;32.85;101116.44;6015272;23;20021;-89
2022/12/26 01:10:36;;;;;;;2.05;1.27;;;;;;;12.48;32.90;101111.72;6015167;23;20348;-88
2022/12/26 01:13:01;;;;;;;1.77;1.38;;;;;;;12.75;32.86;101163.09;6014799;23;20007;-88
2022/12/26 01:15:27;;;;;;;1.70;1.00;;;;;;;12.58;32.67;101136.44;6014830;23;20077;-88
2022/12/26 01:17:53;;;;;;;2.03;1.50;;;;;;;12.39;32.56;101112.81;6014794;23;20002;-89
2022/12/26 01:20:19;;;;;;;1.25;0.95;;;;;;;12.44;32.94;101123.84;6015323;23;20011;-89
2022/12/26 01:22:44;;;;;;;1.65;1.20;;;;;;;12.55;32.69;101138.66;6013687;23;20015;-89
2022/12/26 01:25:13;;;;;;;1.92;1.60;;;;;;;12.59;32.78;101154.19;6014414;23;20039;-88
2022/12/26 01:27:39;;;;;;;1.65;1.10;;;;;;;12.66;33.00;101159.66;6014626;23;20006;-88
2022/12/26 01:30:08;;;;;;;2.15;1.40;;;;;;;12.59;33.15;101164.91;6014909;23;20071;-89
2022/12/26 01:32:34;;;;;;;2.22;1.42;;;;;;;12.52;32.92;101130.97;6014779;23;20007;-88
2022/12/26 01:35:00;;;;;;;2.22;1.23;;;;;;;12.53;32.66;101136.13;6015165;23;20373;-89
2022/12/26 01:37:25;;;;;;;3.03;1.58;;;;;;;12.57;32.88;101145.50;6014323;23;20038;-89
2022/12/26 01:39:51;;;;;;;2.63;1.42;;;;;;;12.66;32.80;101161.50;6014791;23;20195;-88
2022/12/26 01:42:19;;;;;;;2.95;1.63;;;;;;;12.69;33.17;101163.81;6014419;23;20039;-89
2022/12/26 01:45:20;;;;;;;2.28;1.23;;;;;;;12.77;32.91;101172.63;6013702;23;20038;-89
2022/12/26 01:47:47;;;;;;;2.78;1.20;;;;;;;12.50;33.00;101131.13;6037149;23;20049;-89
2022/12/26 01:50:19;;;;;;;1.75;1.15;;;;;;;12.77;32.82;101169.09;6038110;23;20444;-89
2022/12/26 01:52:45;;;;;;;2.13;1.35;;;;;;;12.67;32.86;101160.50;6063754;23;20433;-89
2022/12/26 01:55:11;;;;;;;2.00;1.27;;;;;;;12.62;33.18;101141.44;6014572;23;20014;-88
2022/12/26 01:57:42;;;;;;;1.50;1.10;;;;;;;12.75;33.02;101163.09;6014567;23;20078;-88
2022/12/26 02:00:09;;;;;;;1.58;1.38;;;;;;;12.74;33.15;101169.47;6038402;23;20006;-88
2022/12/26 02:05:32;;;;;;;1.80;1.50;;;;;;;12.62;32.93;101144.13;6037385;23;20019;-88
2022/12/26 02:05:33;;;;;;;1.80;1.20;;;;;;;12.59;33.24;101143.47;6041220;23;20019;-88
2022/12/26 02:07:59;;;;;;;2.10;1.40;;;;;;;12.54;32.98;101128.94;6017892;23;20053;-88
2022/12/26 02:10:24;;;;;;;1.88;1.40;;;;;;;12.54;33.05;101129.78;6014687;23;20014;-89
2022/12/26 02:12:50;;;;;;;2.30;1.70;;;;;;;12.66;33.31;101148.94;6013795;23;20014;-88
2022/12/26 02:15:16;;;;;;;2.33;1.40;;;;;;;12.49;33.05;101116.09;6014739;23;20013;-88
2022/12/26 02:17:42;;;;;;;3.15;1.40;;;;;;;12.48;33.10;101109.03;6013461;23;20014;-89
2022/12/26 02:20:21;;;;;;;4.20;1.38;;;;;;;12.76;33.16;101154.88;6013849;23;20144;-89
2022/12/26 02:23:21;;;;;;;2.03;1.30;;;;;;;12.75;33.02;101155.06;6038588;23;20287;-88
2022/12/26 02:25:58;;;;;;;2.88;1.42;;;;;;;12.65;33.01;101135.72;6061874;23;20098;-88
2022/12/26 02:28:47;;;;;;;1.65;1.27;;;;;;;12.46;33.31;101111.06;6039600;23;20015;-89
2022/12/26 02:31:54;;;;;;;1.85;1.38;;;;;;;12.76;33.21;101144.16;6042787;23;20441;-88
2022/12/26 02:34:44;;;;;;;2.20;1.40;;;;;;;12.46;33.02;101086.94;6030622;23;20015;-88
2022/12/26 02:37:42;;;;;;;2.40;1.58;;;;;;;12.70;33.19;101133.31;6017872;23;20094;-88
2022/12/26 02:40:32;;;;;;;2.75;1.50;;;;;;;12.73;33.17;101132.94;6016051;23;20111;-89
2022/12/26 02:42:59;;;;;;;2.22;1.40;;;;;;;12.42;33.03;101099.06;6061622;23;20130;-88
2022/12/26 02:48:27;;;;;;;2.17;1.58;;;;;;;12.71;33.32;101126.91;6062182;23;20482;-88
2022/12/26 03:14:23;;;;;;;2.78;1.60;;;;;;;12.57;33.47;101094.56;6042121;23;20033;-88
2022/12/26 03:19:36;;;;;;;2.08;1.48;;;;;;;12.55;33.29;101091.19;6041464;23;20583;-88
2022/12/26 03:22:29;;;;;;;2.42;1.70;;;;;;;12.40;33.37;101063.56;6014065;23;20027;-89
2022/12/26 03:27:32;;;;;;;3.28;1.85;;;;;;;12.55;33.41;101075.13;6041377;23;20018;-89
2022/12/26 03:32:42;;;;;;;3.30;1.55;;;;;;;12.57;33.37;101074.94;6043022;23;20089;-88
2022/12/26 03:35:12;;;;;;;1.95;1.30;;;;;;;12.49;33.46;101062.47;6015758;23;20019;-89
2022/12/26 03:37:49;;;;;;;2.40;1.50;;;;;;;12.55;33.69;101067.06;6015610;23;20010;-89
2022/12/26 04:46:24;;;;;;;2.80;1.70;;;;;;;12.39;33.79;101035.09;6043586;23;20013;-88
2022/12/26 04:51:37;;;;;;;1.77;1.42;;;;;;;12.44;33.49;101013.94;6042497;23;20069;-88
2022/12/26 04:54:03;;;;;;;1.52;1.38;;;;;;;12.50;34.01;101015.84;6014953;23;20343;-88
2022/12/26 04:56:29;;;;;;;1.75;1.48;;;;;;;12.57;33.65;101032.88;6015170;23;20433;-88
2022/12/26 04:58:55;;;;;;;1.42;1.17;;;;;;;12.53;33.86;101025.38;6015072;23;20006;-89
2022/12/26 05:09:43;;;;;;;1.50;1.30;;;;;;;12.49;34.03;101027.59;6042370;23;20472;-88
2022/12/26 05:12:09;;;;;;;2.13;1.40;;;;;;;12.39;33.74;101014.47;6014897;23;20086;-88
2022/12/26 05:14:35;;;;;;;1.33;1.10;;;;;;;12.20;33.89;100978.31;6015069;23;20011;-89
2022/12/26 05:30:53;;;;;;;2.00;1.23;;;;;;;12.57;33.97;101021.31;6042456;23;20512;-88
2022/12/26 05:36:03;;;;;;;2.13;1.25;;;;;;;12.50;33.78;101002.44;6041799;23;20061;-88
2022/12/26 05:38:29;;;;;;;1.83;1.38;;;;;;;12.39;33.82;100993.03;6038577;23;20434;-89
2022/12/26 05:40:55;;;;;;;2.30;1.40;;;;;;;12.61;33.75;101016.41;6014409;23;20429;-89
2022/12/26 05:43:21;;;;;;;3.25;1.60;;;;;;;12.56;33.84;101014.31;6013805;23;19998;-88
2022/12/26 05:45:46;;;;;;;2.00;1.30;;;;;;;12.52;33.68;100994.22;6013542;23;20080;-89
2022/12/26 05:48:12;;;;;;;2.75;1.20;;;;;;;12.40;33.99;100973.25;6014551;23;20379;-88
2022/12/26 05:50:38;;;;;;;1.30;1.13;;;;;;;12.38;33.96;100979.81;6014430;23;20424;-89
2022/12/26 05:53:04;;;;;;;2.22;1.50;;;;;;;12.53;33.88;100988.69;6014593;23;20085;-89
2022/12/26 05:55:29;;;;;;;1.65;1.20;;;;;;;12.40;33.75;100981.31;6013071;23;20025;-88
2022/12/26 05:57:55;;;;;;;2.10;1.38;;;;;;;12.41;33.85;100974.06;6014077;23;20427;-88
2022/12/26 06:00:21;;;;;;;2.45;1.45;;;;;;;12.56;33.94;100998.22;6037862;23;20015;-88
2022/12/26 06:02:47;;;;;;;1.77;1.05;;;;;;;12.40;33.81;100972.44;6014082;23;20022;-88
2022/12/26 06:05:13;;;;;;;1.55;1.20;;;;;;;12.64;33.93;101016.91;6036886;23;20419;-88
2022/12/26 06:07:38;;;;;;;1.92;1.52;;;;;;;12.53;33.53;100999.41;6060518;23;20176;-88
2022/12/26 06:10:05;;;;;;;1.92;1.40;;;;;;;12.50;33.72;100988.22;6013310;23;20011;-88
2022/12/26 06:12:32;;;;;;;1.33;1.10;;;;;;;12.40;33.73;100972.44;6013711;23;20018;-88
2022/12/26 06:14:58;;;;;;;1.73;1.50;;;;;;;12.32;33.81;100970.66;6037718;23;20011;-87
2022/12/26 06:17:23;;;;;;;1.90;1.20;;;;;;;12.46;33.65;100977.03;6062167;23;20010;-88
2022/12/26 06:19:49;;;;;;;1.42;1.23;;;;;;;12.32;33.53;100959.13;6062518;23;20007;-88
2022/12/26 06:22:15;;;;;;;2.25;1.15;;;;;;;12.48;33.78;100992.94;6037912;23;20014;-88
2022/12/26 06:24:40;;;;;;;1.20;1.05;;;;;;;12.54;34.01;101001.06;6014356;23;20014;-88
2022/12/26 06:27:06;;;;;;;1.75;1.30;;;;;;;12.53;33.99;101020.03;6037888;23;20011;-88
2022/12/26 06:29:40;;;;;;;2.30;1.48;;;;;;;12.49;33.90;101003.47;6061324;23;20057;-88
2022/12/26 06:32:06;;;;;;;1.67;1.30;;;;;;;12.30;33.71;101004.03;6015311;23;20015;-88
2022/12/26 06:34:32;;;;;;;2.30;1.35;;;;;;;12.43;33.79;100998.84;6012850;23;20339;-88
2022/12/26 06:36:57;;;;;;;1.23;1.02;;;;;;;12.25;33.54;100968.91;6012958;23;20098;-88
2022/12/26 06:39:23;;;;;;;1.90;1.30;;;;;;;12.30;33.56;100979.91;6062510;23;20058;-88
2022/12/26 06:41:49;;;;;;;1.42;1.23;;;;;;;12.26;33.57;100981.28;6062658;23;20349;-88
2022/12/26 06:44:17;;;;;;;1.00;1.00;;;;;;;12.45;33.87;101026.28;6062064;23;20014;-88
2022/12/26 06:46:43;;;;;;;1.77;1.20;;;;;;;12.38;33.67;101003.94;6014977;23;20098;-87
2022/12/26 06:49:09;;;;;;;1.73;1.20;;;;;;;12.35;33.56;100993.59;6014325;23;20541;-88
2022/12/26 06:51:35;;;;;;;1.67;1.30;;;;;;;12.27;33.68;100975.75;6012739;23;20154;-87
2022/12/26 06:54:01;;;;;;;1.40;1.10;;;;;;;12.31;33.51;100981.56;6062268;23;20416;-88
2022/12/26 06:56:30;;;;;;;2.28;1.40;;;;;;;12.39;33.90;100986.84;6013208;23;20011;-88
2022/12/26 06:58:57;;;;;;;1.20;1.00;;;;;;;12.17;34.08;100954.56;6012842;23;20010;-88
2022/12/26 07:01:23;;;;;;;1.50;1.35;;;;;;;12.33;33.62;100976.84;6012010;23;20018;-88
2022/12/26 07:03:51;;;;;;;1.33;1.23;;;;;;;12.45;33.70;100995.97;6012973;23;20150;-87
2022/12/26 07:06:26;;;;;;;1.85;1.20;;;;;;;12.32;33.89;100980.56;6013800;23;20015;-88
2022/12/26 07:08:53;;;;;;;1.40;1.13;;;;;;;12.36;34.09;100981.84;6039982;23;20047;-88
2022/12/26 07:11:21;;;;;;;1.98;1.50;;;;;;;12.42;33.89;100999.88;6014826;23;20006;-87
2022/12/26 07:13:47;;;;;;;1.25;1.15;;;;;;;12.35;33.49;100985.56;6016150;23;20014;-88
2022/12/26 07:16:13;;;;;;;1.65;1.10;;;;;;;12.49;33.84;101008.84;6064690;23;20010;-88
2022/12/26 07:18:38;;;;;;;1.52;1.00;;;;;;;12.27;34.15;100972.25;6039214;23;20007;-88
2022/12/26 07:21:08;;;;;;;1.80;1.05;;;;;;;12.24;34.04;100978.78;6061941;23;19999;-88
2022/12/26 07:23:34;;;;;;;1.88;1.10;;;;;;;12.11;34.30;100936.56;6060082;23;20486;-88
2022/12/26 07:26:00;;;;;;;1.45;1.20;;;;;;;12.32;34.26;100975.19;6036461;23;20038;-88
2022/12/26 07:28:26;;;;;;;1.33;1.02;;;;;;;12.43;34.12;100989.97;6012631;23;20077;-88
2022/12/26 07:30:52;;;;;;;1.17;1.08;;;;;;;12.50;33.99;101006.97;6015579;23;20011;-87
2022/12/26 07:33:21;;;;;;;1.40;1.15;;;;;;;12.46;34.25;101009.22;6015516;23;20056;-87
2022/12/26 07:35:49;;;;;;;1.27;1.10;;;;;;;12.46;33.96;101016.44;6015375;23;20075;-87
2022/12/26 07:38:15;;;;;;;1.30;1.20;;;;;;;12.50;33.92;101010.50;6038947;23;20033;-87
2022/12/26 07:40:40;;;;;;;2.00;1.40;;;;;;;12.47;34.25;101012.72;6062891;23;20348;-87
2022/12/26 07:43:06;;;;;;;1.58;1.05;;;;;;;12.44;33.98;101015.78;6039551;23;20010;-87
2022/12/26 07:45:32;;;;;;;1.52;1.20;;;;;;;12.46;33.88;101009.22;6013974;23;20013;-87
2022/12/26 07:47:57;;;;;;;1.30;1.20;;;;;;;12.38;34.09;101006.59;6015423;23;20155;-87
2022/12/26 07:50:24;;;;;;;1.10;1.00;;;;;;;12.45;33.89;101015.56;6039403;23;20081;-87
2022/12/26 07:52:50;;;;;;;1.63;1.10;;;;;;;12.45;33.95;101012.06;6039057;23;20070;-87
2022/12/26 07:55:15;;;;;;;0.98;0.95;;;;;;;12.42;34.09;101002.56;6038425;23;20395;-87
2022/12/26 07:57:41;;;;;;;3.15;1.52;;;;;;;12.43;34.04;101000.69;6061753;23;20093;-87
2022/12/26 08:00:07;;;;;;;1.10;0.80;;;;;;;12.37;34.19;100997.75;6015629;23;20081;-87
2022/12/26 08:02:33;;;;;;;1.42;0.98;;;;;;;12.44;34.30;101013.94;6038065;23;20396;-88
2022/12/26 08:04:59;;;;;;;1.20;1.00;;;;;;;12.44;34.15;101013.09;6012219;23;20059;-87
2022/12/26 08:07:31;;;;;;;1.08;0.98;;;;;;;12.41;34.23;101014.28;6011720;23;20010;-88
2022/12/26 08:09:57;;;;;;;1.27;1.17;;;;;;;12.28;34.22;100995.31;6036174;23;20389;-88
2022/12/26 08:12:23;;;;;;;1.00;0.90;;;;;;;12.29;34.25;100984.44;6012390;23;20010;-88
2022/12/26 08:14:49;;;;;;;1.60;1.05;;;;;;;12.47;34.31;101012.72;6012295;23;20393;-88
2022/12/26 08:17:15;;;;;;;1.35;1.08;;;;;;;12.43;34.17;101001.53;6012008;23;20015;-88
2022/12/26 08:19:41;;;;;;;1.38;1.10;;;;;;;12.19;33.77;100965.09;6014264;23;20029;-87
2022/12/26 08:22:06;;;;;;;1.23;1.05;;;;;;;12.32;34.14;100985.91;6015380;23;20464;-87
2022/12/26 08:24:32;;;;;;;2.03;1.23;;;;;;;12.20;33.94;100962.25;6015222;23;20011;-87
2022/12/26 08:26:58;;;;;;;0.90;0.80;;;;;;;12.34;34.16;100987.38;6015212;23;20011;-87
2022/12/26 08:29:24;;;;;;;1.55;1.10;;;;;;;12.33;33.75;100976.84;6014809;23;20011;-88
2022/12/26 08:31:50;;;;;;;1.30;1.10;;;;;;;12.37;33.95;100975.47;6015719;23;20011;-87
2022/12/26 08:34:16;;;;;;;1.13;1.00;;;;;;;12.17;34.04;100949.22;6014916;23;20011;-86
2022/12/26 08:36:43;;;;;;;1.13;1.00;;;;;;;12.20;34.38;100953.38;6015941;23;20029;-86
2022/12/26 08:39:08;;;;;;;1.60;1.13;;;;;;;12.32;33.74;100977.88;6016194;23;20048;-86
2022/12/26 08:41:34;;;;;;;1.92;1.20;;;;;;;12.13;34.21;100955.16;6014932;23;20500;-86
2022/12/26 08:44:00;;;;;;;1.17;1.08;;;;;;;12.21;33.86;100947.84;6015277;23;20172;-86
2022/12/26 08:46:29;;;;;;;1.50;1.20;;;;;;;12.25;34.35;100942.13;6038981;23;20127;-86
2022/12/26 08:48:55;;;;;;;1.15;1.02;;;;;;;12.26;34.18;100946.44;6065453;23;19999;-87
2022/12/26 08:51:24;;;;;;;1.25;1.00;;;;;;;12.21;34.13;100929.09;6062341;23;20018;-86
2022/12/26 08:53:50;;;;;;;1.15;0.90;;;;;;;12.17;34.18;100916.22;6063748;23;20326;-86
2022/12/26 08:56:19;;;;;;;1.73;1.10;;;;;;;12.14;34.32;100906.72;6038247;23;20011;-86
2022/12/26 08:58:44;;;;;;;1.60;1.00;;;;;;;12.20;34.24;100923.91;6064399;23;20007;-87
2022/12/26 09:01:21;;;;;;;2.10;1.30;;;;;;;12.09;34.44;100906.44;6014676;23;20015;-87
2022/12/26 09:03:47;;;;;;;1.17;0.98;;;;;;;12.08;34.32;100898.59;6038369;23;20105;-87
2022/12/26 09:06:13;;;;;;;1.38;1.00;;;;;;;12.17;34.34;100909.00;6063953;23;20013;-86
2022/12/26 09:08:39;;;;;;;1.10;1.00;;;;;;;12.33;34.33;100923.25;6014882;23;20033;-87
2022/12/26 09:11:13;;;;;;;1.30;1.00;;;;;;;12.38;34.35;100942.28;6015158;23;20007;-87
2022/12/26 09:13:39;;;;;;;1.10;1.00;;;;;;;12.24;34.29;100898.38;6061761;23;20007;-86
2022/12/26 09:16:08;;;;;;;1.48;1.00;;;;;;;12.25;33.87;100907.28;6062289;23;20243;-87
2022/12/26 09:18:34;;;;;;;1.05;0.95;;;;;;;12.32;34.11;100922.41;6038873;23;20435;-86
2022/12/26 09:21:01;;;;;;;0.80;0.80;;;;;;;12.35;34.52;100929.28;6014920;23;20026;-86
2022/12/26 09:23:27;;;;;;;1.63;1.10;;;;;;;12.29;34.43;100911.25;6014173;23;20444;-87
2022/12/26 09:25:53;;;;;;;2.03;1.02;;;;;;;12.14;34.30;100890.66;6062438;23;20086;-87
2022/12/26 09:28:22;;;;;;;1.55;1.15;;;;;;;12.31;34.29;100918.06;6060291;23;20056;-85
2022/12/26 09:30:47;;;;;;;1.65;1.30;;;;;;;12.10;34.20;100877.81;6033799;23;20006;-86
2022/12/26 09:33:13;;;;;;;1.38;1.17;;;;;;;12.32;34.07;100917.06;6061823;23;20119;-86
2022/12/26 09:35:40;;;;;;;1.50;1.20;;;;;;;12.20;33.76;100903.28;6061541;23;20007;-86
2022/12/26 09:38:08;;;;;;;1.48;1.20;;;;;;;12.37;34.23;100919.19;6061744;23;20342;-86
2022/12/26 09:41:13;;;;;;;1.70;1.20;;;;;;;12.41;33.97;100923.16;6061199;23;20018;-86
2022/12/26 09:43:45;;;;;;;1.77;1.20;;;;;;;12.39;33.85;100922.50;6017731;23;20021;-86
2022/12/26 09:46:23;;;;;;;1.20;1.10;;;;;;;12.19;33.97;100898.13;6061317;23;20013;-85
2022/12/26 09:49:15;;;;;;;1.35;1.15;;;;;;;12.11;33.70;100877.63;6038613;23;20019;-85
2022/12/26 09:51:42;;;;;;;1.30;1.10;;;;;;;12.20;34.10;100892.56;6036650;23;20011;-85
2022/12/26 09:54:13;;;;;;;1.88;1.33;;;;;;;12.33;34.18;100904.47;6013058;23;20018;-85
2022/12/26 09:56:39;;;;;;;1.38;1.02;;;;;;;12.09;34.20;100868.94;6013876;23;20350;-85
2022/12/26 09:59:07;;;;;;;1.30;1.10;;;;;;;12.38;33.95;100918.16;6011914;23;20448;-86
2022/12/26 10:01:34;;;;;;;3.03;1.23;;;;;;;12.38;33.84;100910.09;6036484;23;20051;-85
2022/12/26 10:04:01;;;;;;;1.58;1.10;;;;;;;12.16;34.20;100893.16;6012840;23;20038;-85
2022/12/26 10:06:37;;;;;;;2.65;1.02;;;;;;;12.19;34.31;100900.78;6012957;23;20026;-85
2022/12/26 10:09:15;;;;;;;2.15;1.20;;;;;;;12.32;34.60;100922.41;6037061;23;20034;-85
2022/12/26 10:11:59;;;;;;;1.35;1.00;;;;;;;12.34;34.44;100915.03;6036597;23;20090;-86
2022/12/26 10:14:37;;;;;;;1.23;1.00;;;;;;;12.34;34.26;100917.69;6061235;23;20015;-86
2022/12/26 10:17:20;;;;;;;2.00;1.10;;;;;;;12.35;34.15;100907.81;6060460;23;20007;-85
2022/12/26 10:19:56;;;;;;;2.30;1.20;;;;;;;12.27;34.38;100897.19;6061263;23;20302;-84
2022/12/26 10:23:03;;;;;;;1.45;1.20;;;;;;;12.31;34.12;100904.66;6038609;23;20007;-84
2022/12/26 10:26:01;;;;;;;1.67;1.15;;;;;;;12.23;34.25;100890.53;6036860;23;20083;-85
2022/12/26 10:28:32;;;;;;;1.95;1.27;;;;;;;12.35;34.18;100895.25;6015107;23;20007;-85
2022/12/26 10:30:59;;;;;;;1.30;1.20;;;;;;;12.30;34.14;100886.13;6058774;23;20348;-85
2022/12/26 10:33:54;;;;;;;2.25;1.30;;;;;;;12.24;34.14;100878.81;6035342;23;20425;-85
2022/12/26 10:36:31;;;;;;;1.40;1.10;;;;;;;12.21;34.11;100878.16;6038207;23;20022;-86
2022/12/26 10:39:01;;;;;;;1.33;1.15;;;;;;;12.01;34.20;100844.94;6035567;23;20338;-86
2022/12/26 10:41:38;;;;;;;1.73;1.00;;;;;;;12.22;34.26;100876.31;6012031;23;20014;-86
2022/12/26 10:44:03;;;;;;;1.52;1.10;;;;;;;12.34;33.96;100898.13;6038723;23;20058;-85
2022/12/26 10:46:52;;;;;;;1.35;1.13;;;;;;;12.07;34.15;100854.88;6037381;23;20011;-86
2022/12/26 10:49:20;;;;;;;1.45;1.30;;;;;;;12.17;34.41;100876.03;6062167;23;20204;-86
2022/12/26 10:51:46;;;;;;;1.45;1.20;;;;;;;11.92;34.19;100814.72;6064893;23;20010;-86
2022/12/26 10:54:19;;;;;;;1.45;1.10;;;;;;;11.87;34.02;100810.91;6063267;23;20058;-84
2022/12/26 10:56:46;;;;;;;2.65;1.20;;;;;;;12.17;34.28;100850.06;6062494;23;20086;-85
2022/12/26 10:59:18;;;;;;;1.63;1.02;;;;;;;12.23;34.38;100853.88;6013367;23;20007;-85
2022/12/26 11:01:47;;;;;;;1.25;1.02;;;;;;;12.14;34.31;100839.75;6011672;23;20018;-85
2022/12/26 11:04:21;;;;;;;1.60;1.13;;;;;;;12.20;34.13;100843.53;6009448;23;20047;-85
2022/12/26 11:06:51;;;;;;;1.27;1.00;;;;;;;12.17;33.98;100831.31;6033783;23;20456;-86
2022/12/26 11:09:39;;;;;;;1.38;1.10;;;;;;;12.30;34.07;100848.59;6008630;23;20442;-85
2022/12/26 11:12:06;;;;;;;1.38;0.95;;;;;;;12.01;34.42;100802.06;5985746;23;20067;-85
2022/12/26 11:14:38;;;;;;;1.52;1.00;;;;;;;12.27;34.13;100843.59;6033840;23;20011;-85
2022/12/26 11:17:11;;;;;;;2.72;1.25;;;;;;;12.20;34.21;100833.63;6032881;23;20027;-85
2022/12/26 11:19:39;;;;;;;1.20;1.00;;;;;;;12.15;34.21;100824.50;6008251;23;20015;-85
2022/12/26 11:22:27;;;;;;;1.73;1.00;;;;;;;12.21;34.30;100845.16;6008514;23;20014;-85
2022/12/26 11:25:11;;;;;;;1.02;0.90;;;;;;;11.97;34.06;100803.44;6010334;23;20007;-85
2022/12/26 11:27:39;;;;;;;1.58;1.10;;;;;;;12.04;34.29;100815.09;5984357;23;20513;-86
2022/12/26 11:30:14;;;;;;;1.95;1.08;;;;;;;12.27;34.04;100857.81;6032282;23;20382;-86
2022/12/26 11:32:40;;;;;;;1.45;1.00;;;;;;;11.99;33.92;100815.63;6007628;23;20011;-86
2022/12/26 11:35:14;;;;;;;1.33;1.10;;;;;;;11.89;34.09;100819.59;6006177;23;20022;-86
2022/12/26 11:37:41;;;;;;;1.17;1.00;;;;;;;12.03;34.43;100826.81;6009287;23;20453;-85
2022/12/26 11:40:19;;;;;;;1.33;1.00;;;;;;;11.84;34.28;100802.22;6006626;23;20004;-85
2022/12/26 11:42:53;;;;;;;1.65;1.00;;;;;;;11.99;34.64;100831.72;6032340;23;20421;-86
2022/12/26 11:45:24;;;;;;;2.08;1.05;;;;;;;12.10;34.11;100832.25;6030378;23;20004;-86
2022/12/26 11:47:50;;;;;;;1.83;1.02;;;;;;;12.00;34.12;100828.03;6032176;23;20004;-86
2022/12/26 11:50:20;;;;;;;1.20;1.00;;;;;;;12.01;34.36;100824.31;5984021;23;20293;-86
2022/12/26 11:52:52;;;;;;;1.10;0.90;;;;;;;12.25;34.46;100853.69;5962589;23;20875;-86
2022/12/26 11:55:21;;;;;;;1.30;0.98;;;;;;;12.27;34.61;100854.31;5984333;23;20471;-86
2022/12/26 11:58:00;;;;;;;2.08;1.10;;;;;;;12.19;34.12;100834.66;6008605;23;20196;-86
2022/12/26 12:00:27;;;;;;;1.27;0.90;;;;;;;11.94;34.57;100798.47;6008713;23;20074;-86
2022/12/26 12:02:52;;;;;;;1.65;1.20;;;;;;;12.29;34.53;100852.28;6033563;23;20457;-86
2022/12/26 12:05:27;;;;;;;1.25;1.15;;;;;;;12.30;34.29;100853.97;6007949;23;20120;-86
2022/12/26 12:08:03;;;;;;;1.27;1.00;;;;;;;12.27;34.33;100839.06;6033561;23;20004;-86
2022/12/26 12:10:53;;;;;;;1.83;1.00;;;;;;;12.26;34.47;100833.88;5985185;23;20018;-86
2022/12/26 12:14:01;;;;;;;1.60;1.08;;;;;;;12.26;34.30;100828.53;5986606;23;20015;-86
2022/12/26 12:16:35;;;;;;;1.65;1.10;;;;;;;12.28;34.07;100818.44;5918048;23;20039;-86
2022/12/26 12:19:22;;;;;;;1.50;1.00;;;;;;;12.25;34.78;100802.78;6032733;23;20043;-86
2022/12/26 12:22:06;;;;;;;1.05;0.95;;;;;;;12.23;34.81;100810.13;6010618;23;20082;-86
2022/12/26 12:24:40;;;;;;;0.93;0.90;;;;;;;12.25;34.81;100805.44;6033458;23;20073;-85
2022/12/26 12:27:28;;;;;;;1.05;0.90;;;;;;;12.31;34.66;100808.19;6032978;23;20014;-85
2022/12/26 12:30:14;;;;;;;1.02;0.90;;;;;;;11.97;34.13;100757.91;5984658;23;20007;-85
2022/12/26 12:32:58;;;;;;;0.80;0.73;;;;;;;12.31;34.40;100807.34;6011899;23;20504;-85
2022/12/26 12:35:40;;;;;;;1.25;0.90;;;;;;;12.23;34.19;100805.63;6009911;23;20011;-85
2022/12/26 12:38:13;;;;;;;1.48;0.90;;;;;;;12.18;34.41;100798.16;5988447;23;20329;-86
2022/12/26 12:40:49;;;;;;;1.73;1.05;;;;;;;12.28;34.36;100807.72;5987141;23;20390;-86
2022/12/26 12:43:16;;;;;;;0.80;0.80;;;;;;;11.87;34.47;100752.00;6008745;23;20039;-84
2022/12/26 12:45:57;;;;;;;2.47;1.05;;;;;;;12.31;33.99;100823.44;5986163;23;20091;-85
2022/12/26 12:48:53;;;;;;;1.05;0.95;;;;;;;12.26;33.92;100810.59;6033934;23;20015;-85
2022/12/26 12:51:58;;;;;;;1.17;0.90;;;;;;;12.25;33.81;100800.91;6013841;23;20007;-85
2022/12/26 12:55:00;;;;;;;1.40;0.80;;;;;;;12.26;33.32;100799.06;5920651;24;20044;-85
2022/12/26 12:57:50;;;;;;;1.15;0.80;;;;;;;12.20;33.72;100795.28;5920132;24;20017;-85
2022/12/26 13:00:39;;;;;;;0.95;0.85;;;;;;;12.20;33.84;100790.75;5975750;23;20063;-86
2022/12/26 13:03:09;;;;;;;1.15;0.80;;;;;;;12.20;34.04;100798.78;5989792;23;20026;-86
2022/12/26 13:05:42;;;;;;;1.98;0.85;;;;;;;12.22;33.59;100798.59;5983922;23;20027;-85
2022/12/26 13:08:18;;;;;;;1.30;0.90;;;;;;;12.17;34.08;100784.94;6008470;23;20382;-85
2022/12/26 13:10:57;;;;;;;1.52;0.60;;;;;;;12.23;33.82;100794.06;5986716;23;20015;-86
2022/12/26 13:14:07;;;;;;;1.63;1.10;;;;;;;12.24;34.44;100783.16;5985494;23;20299;-86
2022/12/26 13:16:42;;;;;;;1.30;1.00;;;;;;;12.02;34.52;100755.50;5947171;24;20008;-86
2022/12/26 13:19:24;;;;;;;1.63;1.00;;;;;;;12.12;34.21;100777.44;5946704;24;20469;-85
2022/12/26 13:21:50;;;;;;;0.70;0.70;;;;;;;12.09;34.48;100767.13;5990611;23;20015;-85
2022/12/26 13:24:23;;;;;;;0.90;0.80;;;;;;;12.14;34.20;100770.09;5962840;23;20011;-85
2022/12/26 13:26:56;;;;;;;2.25;1.10;;;;;;;12.16;34.12;100778.75;5985928;23;20271;-86
2022/12/26 13:29:40;;;;;;;2.65;1.30;;;;;;;12.06;33.79;100748.75;6007689;23;20007;-85
2022/12/26 13:32:19;;;;;;;2.65;1.20;;;;;;;12.20;34.05;100774.66;5984642;23;20018;-85
2022/12/26 13:34:45;;;;;;;1.35;1.20;;;;;;;12.14;34.17;100772.75;5985025;23;20389;-85
2022/12/26 13:37:39;;;;;;;1.73;1.25;;;;;;;12.24;34.38;100774.28;5985393;23;19999;-85
2022/12/26 13:40:18;;;;;;;1.10;1.00;;;;;;;12.21;34.11;100765.63;6008825;23;20039;-85
2022/12/26 13:45:56;;;;;;;1.50;1.05;;;;;;;12.25;34.18;100774.13;6011905;23;20018;-85
2022/12/26 13:48:25;;;;;;;1.08;0.90;;;;;;;12.25;34.67;100765.25;5985071;23;20449;-85
2022/12/26 13:50:59;;;;;;;2.95;1.10;;;;;;;12.27;34.34;100763.22;6008864;23;20452;-85
2022/12/26 13:53:24;;;;;;;2.72;1.38;;;;;;;12.25;34.02;100763.41;5963516;23;20511;-85
2022/12/26 13:55:54;;;;;;;2.05;1.30;;;;;;;12.00;34.34;100712.00;6031951;23;20015;-85